sensor_id;sensor_type;location;lat;lon;timestamp;temperature;humidity
21891;DHT22;11110;52.386;16.940;2023-04-25T00:02:14;24.50;39.70
21891;DHT22;11110;52.386;16.940;2023-04-25T00:04:43;24.30;39.60
21891;DHT22;11110;52.386;16.940;2023-04-25T00:07:13;24.30;39.50
21891;DHT22;11110;52.386;16.940;2023-04-25T00:09:42;24.10;39.60
21891;DHT22;11110;52.386;16.940;2023-04-25T00:12:10;24.10;39.20
21891;DHT22;11110;52.386;16.940;2023-04-25T00:14:39;24.00;39.40
21891;DHT22;11110;52.386;16.940;2023-04-25T00:17:07;24.00;39.70
21891;DHT22;11110;52.386;16.940;2023-04-25T00:19:36;23.90;39.70
21891;DHT22;11110;52.386;16.940;2023-04-25T00:22:04;23.90;39.70
21891;DHT22;11110;52.386;16.940;2023-04-25T00:24:35;23.80;39.90
21891;DHT22;11110;52.386;16.940;2023-04-25T00:27:03;23.70;39.80
21891;DHT22;11110;52.386;16.940;2023-04-25T00:29:32;23.60;40.00
21891;DHT22;11110;52.386;16.940;2023-04-25T00:32:01;23.60;39.90
21891;DHT22;11110;52.386;16.940;2023-04-25T00:34:30;23.80;39.70
21891;DHT22;11110;52.386;16.940;2023-04-25T00:36:59;23.60;39.50
21891;DHT22;11110;52.386;16.940;2023-04-25T00:39:29;23.50;39.40
21891;DHT22;11110;52.386;16.940;2023-04-25T00:41:59;23.40;39.50
21891;DHT22;11110;52.386;16.940;2023-04-25T00:44:29;23.50;39.50
21891;DHT22;11110;52.386;16.940;2023-04-25T00:47:00;23.30;39.60
21891;DHT22;11110;52.386;16.940;2023-04-25T00:49:30;23.50;39.40
21891;DHT22;11110;52.386;16.940;2023-04-25T00:51:58;23.30;39.60
21891;DHT22;11110;52.386;16.940;2023-04-25T00:54:27;23.30;39.60
21891;DHT22;11110;52.386;16.940;2023-04-25T00:56:58;23.50;39.70
21891;DHT22;11110;52.386;16.940;2023-04-25T00:59:28;23.40;39.50
21891;DHT22;11110;52.386;16.940;2023-04-25T01:01:58;23.30;39.70
21891;DHT22;11110;52.386;16.940;2023-04-25T01:04:27;23.30;39.80
21891;DHT22;11110;52.386;16.940;2023-04-25T01:06:56;23.40;40.00
21891;DHT22;11110;52.386;16.940;2023-04-25T01:09:26;23.30;39.90
21891;DHT22;11110;52.386;16.940;2023-04-25T01:11:55;23.30;39.90
21891;DHT22;11110;52.386;16.940;2023-04-25T01:14:26;23.30;39.90
21891;DHT22;11110;52.386;16.940;2023-04-25T01:16:54;23.50;40.00
21891;DHT22;11110;52.386;16.940;2023-04-25T01:19:23;23.40;40.00
21891;DHT22;11110;52.386;16.940;2023-04-25T01:21:53;23.40;40.00
21891;DHT22;11110;52.386;16.940;2023-04-25T01:24:22;23.60;40.10
21891;DHT22;11110;52.386;16.940;2023-04-25T01:26:51;23.50;40.10
21891;DHT22;11110;52.386;16.940;2023-04-25T01:29:24;23.40;40.50
21891;DHT22;11110;52.386;16.940;2023-04-25T01:31:53;23.50;40.80
21891;DHT22;11110;52.386;16.940;2023-04-25T01:34:21;23.40;40.80
21891;DHT22;11110;52.386;16.940;2023-04-25T01:36:50;23.50;41.00
21891;DHT22;11110;52.386;16.940;2023-04-25T01:39:20;23.50;41.00
21891;DHT22;11110;52.386;16.940;2023-04-25T01:41:49;23.50;40.90
21891;DHT22;11110;52.386;16.940;2023-04-25T01:44:17;23.50;41.10
21891;DHT22;11110;52.386;16.940;2023-04-25T01:46:46;23.50;41.10
21891;DHT22;11110;52.386;16.940;2023-04-25T01:49:15;23.40;41.00
21891;DHT22;11110;52.386;16.940;2023-04-25T01:51:44;23.40;41.00
21891;DHT22;11110;52.386;16.940;2023-04-25T01:54:13;23.40;40.90
21891;DHT22;11110;52.386;16.940;2023-04-25T01:56:43;23.50;40.80
21891;DHT22;11110;52.386;16.940;2023-04-25T01:59:11;23.50;40.70
21891;DHT22;11110;52.386;16.940;2023-04-25T02:01:59;23.40;40.60
21891;DHT22;11110;52.386;16.940;2023-04-25T02:04:32;23.40;40.60
21891;DHT22;11110;52.386;16.940;2023-04-25T02:07:02;23.40;40.50
21891;DHT22;11110;52.386;16.940;2023-04-25T02:09:43;23.20;40.50
21891;DHT22;11110;52.386;16.940;2023-04-25T02:12:14;23.30;40.80
21891;DHT22;11110;52.386;16.940;2023-04-25T02:15:01;23.20;40.80
21891;DHT22;11110;52.386;16.940;2023-04-25T02:17:42;23.10;40.80
21891;DHT22;11110;52.386;16.940;2023-04-25T02:20:12;23.10;40.70
21891;DHT22;11110;52.386;16.940;2023-04-25T02:22:41;23.20;40.80
21891;DHT22;11110;52.386;16.940;2023-04-25T02:25:10;23.00;40.70
21891;DHT22;11110;52.386;16.940;2023-04-25T02:27:41;23.10;40.90
21891;DHT22;11110;52.386;16.940;2023-04-25T02:30:10;23.10;40.70
21891;DHT22;11110;52.386;16.940;2023-04-25T02:32:39;23.00;40.70
21891;DHT22;11110;52.386;16.940;2023-04-25T02:35:09;23.10;40.50
21891;DHT22;11110;52.386;16.940;2023-04-25T02:37:39;23.10;40.40
21891;DHT22;11110;52.386;16.940;2023-04-25T02:40:08;23.20;40.50
21891;DHT22;11110;52.386;16.940;2023-04-25T02:42:37;23.00;40.50
21891;DHT22;11110;52.386;16.940;2023-04-25T02:45:08;23.00;40.50
21891;DHT22;11110;52.386;16.940;2023-04-25T02:47:37;23.00;40.50
21891;DHT22;11110;52.386;16.940;2023-04-25T02:50:06;22.90;40.50
21891;DHT22;11110;52.386;16.940;2023-04-25T02:52:35;22.90;40.50
21891;DHT22;11110;52.386;16.940;2023-04-25T02:55:18;23.00;40.40
21891;DHT22;11110;52.386;16.940;2023-04-25T02:57:47;22.90;40.40
21891;DHT22;11110;52.386;16.940;2023-04-25T03:00:28;22.90;40.30
21891;DHT22;11110;52.386;16.940;2023-04-25T03:02:56;22.90;40.50
21891;DHT22;11110;52.386;16.940;2023-04-25T03:05:25;22.90;40.50
21891;DHT22;11110;52.386;16.940;2023-04-25T03:07:53;22.90;40.40
21891;DHT22;11110;52.386;16.940;2023-04-25T03:10:22;22.90;41.10
21891;DHT22;11110;52.386;16.940;2023-04-25T03:12:51;22.90;40.50
21891;DHT22;11110;52.386;16.940;2023-04-25T03:15:20;22.80;40.70
21891;DHT22;11110;52.386;16.940;2023-04-25T03:17:49;22.90;40.60
21891;DHT22;11110;52.386;16.940;2023-04-25T03:20:18;22.90;40.60
21891;DHT22;11110;52.386;16.940;2023-04-25T03:22:47;22.90;40.50
21891;DHT22;11110;52.386;16.940;2023-04-25T03:25:15;22.90;40.50
21891;DHT22;11110;52.386;16.940;2023-04-25T03:27:44;22.80;40.50
21891;DHT22;11110;52.386;16.940;2023-04-25T03:30:13;22.80;40.50
21891;DHT22;11110;52.386;16.940;2023-04-25T03:32:44;22.90;40.70
21891;DHT22;11110;52.386;16.940;2023-04-25T03:35:17;22.80;40.70
21891;DHT22;11110;52.386;16.940;2023-04-25T03:37:45;22.80;40.90
21891;DHT22;11110;52.386;16.940;2023-04-25T03:40:20;22.70;40.70
21891;DHT22;11110;52.386;16.940;2023-04-25T03:43:06;22.80;40.70
21891;DHT22;11110;52.386;16.940;2023-04-25T03:45:37;22.80;40.80
21891;DHT22;11110;52.386;16.940;2023-04-25T03:48:05;22.80;40.80
21891;DHT22;11110;52.386;16.940;2023-04-25T03:50:35;22.70;40.80
21891;DHT22;11110;52.386;16.940;2023-04-25T03:53:04;22.70;40.80
21891;DHT22;11110;52.386;16.940;2023-04-25T03:55:51;22.70;40.90
21891;DHT22;11110;52.386;16.940;2023-04-25T03:58:20;22.70;40.80
21891;DHT22;11110;52.386;16.940;2023-04-25T04:00:50;22.70;40.90
21891;DHT22;11110;52.386;16.940;2023-04-25T04:03:18;22.70;40.90
21891;DHT22;11110;52.386;16.940;2023-04-25T04:05:49;22.70;40.90
21891;DHT22;11110;52.386;16.940;2023-04-25T04:08:18;22.80;41.00
21891;DHT22;11110;52.386;16.940;2023-04-25T04:10:47;22.70;41.00
21891;DHT22;11110;52.386;16.940;2023-04-25T04:13:15;22.80;41.10
21891;DHT22;11110;52.386;16.940;2023-04-25T04:15:44;22.70;41.00
21891;DHT22;11110;52.386;16.940;2023-04-25T04:18:13;22.70;41.10
21891;DHT22;11110;52.386;16.940;2023-04-25T04:20:42;22.70;41.20
21891;DHT22;11110;52.386;16.940;2023-04-25T04:23:13;22.70;41.20
21891;DHT22;11110;52.386;16.940;2023-04-25T04:25:41;22.80;41.40
21891;DHT22;11110;52.386;16.940;2023-04-25T04:28:19;22.70;41.40
21891;DHT22;11110;52.386;16.940;2023-04-25T04:30:56;22.60;41.60
21891;DHT22;11110;52.386;16.940;2023-04-25T04:33:26;22.60;41.70
21891;DHT22;11110;52.386;16.940;2023-04-25T04:35:58;22.70;41.80
21891;DHT22;11110;52.386;16.940;2023-04-25T04:38:29;22.60;41.70
21891;DHT22;11110;52.386;16.940;2023-04-25T04:41:01;22.60;41.80
21891;DHT22;11110;52.386;16.940;2023-04-25T04:43:39;22.60;41.70
21891;DHT22;11110;52.386;16.940;2023-04-25T04:46:20;22.70;41.80
21891;DHT22;11110;52.386;16.940;2023-04-25T04:49:18;22.70;41.70
21891;DHT22;11110;52.386;16.940;2023-04-25T04:52:09;22.60;41.70
21891;DHT22;11110;52.386;16.940;2023-04-25T04:54:53;22.60;41.80
21891;DHT22;11110;52.386;16.940;2023-04-25T04:57:34;22.60;41.70
21891;DHT22;11110;52.386;16.940;2023-04-25T05:00:12;22.60;41.80
21891;DHT22;11110;52.386;16.940;2023-04-25T05:03:05;22.50;41.80
21891;DHT22;11110;52.386;16.940;2023-04-25T05:05:42;22.60;41.80
21891;DHT22;11110;52.386;16.940;2023-04-25T05:08:32;22.40;41.90
21891;DHT22;11110;52.386;16.940;2023-04-25T05:11:15;22.60;42.20
21891;DHT22;11110;52.386;16.940;2023-04-25T05:14:07;22.70;41.90
21891;DHT22;11110;52.386;16.940;2023-04-25T05:17:02;22.80;41.70
21891;DHT22;11110;52.386;16.940;2023-04-25T05:19:54;22.70;42.00
21891;DHT22;11110;52.386;16.940;2023-04-25T05:22:42;22.60;41.80
21891;DHT22;11110;52.386;16.940;2023-04-25T05:25:19;22.60;41.80
21891;DHT22;11110;52.386;16.940;2023-04-25T05:27:59;22.70;41.60
21891;DHT22;11110;52.386;16.940;2023-04-25T05:30:39;22.70;41.90
21891;DHT22;11110;52.386;16.940;2023-04-25T05:33:16;22.60;41.70
21891;DHT22;11110;52.386;16.940;2023-04-25T05:35:46;22.80;41.70
21891;DHT22;11110;52.386;16.940;2023-04-25T05:38:14;22.60;41.80
21891;DHT22;11110;52.386;16.940;2023-04-25T05:41:01;22.60;41.80
21891;DHT22;11110;52.386;16.940;2023-04-25T05:43:41;22.70;41.70
21891;DHT22;11110;52.386;16.940;2023-04-25T05:46:34;22.80;41.20
21891;DHT22;11110;52.386;16.940;2023-04-25T05:49:09;22.70;41.40
21891;DHT22;11110;52.386;16.940;2023-04-25T05:51:52;22.90;41.30
21891;DHT22;11110;52.386;16.940;2023-04-25T05:54:42;22.90;41.40
21891;DHT22;11110;52.386;16.940;2023-04-25T05:57:20;23.00;41.10
21891;DHT22;11110;52.386;16.940;2023-04-25T05:59:51;23.10;41.20
21891;DHT22;11110;52.386;16.940;2023-04-25T06:02:21;22.80;42.00
21891;DHT22;11110;52.386;16.940;2023-04-25T06:04:50;22.80;41.20
21891;DHT22;11110;52.386;16.940;2023-04-25T06:07:19;22.90;41.10
21891;DHT22;11110;52.386;16.940;2023-04-25T06:09:48;22.90;41.10
21891;DHT22;11110;52.386;16.940;2023-04-25T06:12:17;22.90;40.80
21891;DHT22;11110;52.386;16.940;2023-04-25T06:14:47;22.80;41.00
21891;DHT22;11110;52.386;16.940;2023-04-25T06:17:17;22.90;40.90
21891;DHT22;11110;52.386;16.940;2023-04-25T06:19:48;23.10;40.50
21891;DHT22;11110;52.386;16.940;2023-04-25T06:22:18;23.20;40.50
21891;DHT22;11110;52.386;16.940;2023-04-25T06:24:47;23.20;40.20
21891;DHT22;11110;52.386;16.940;2023-04-25T06:27:16;23.10;40.30
21891;DHT22;11110;52.386;16.940;2023-04-25T06:29:45;23.10;40.20
21891;DHT22;11110;52.386;16.940;2023-04-25T06:32:14;23.10;40.20
21891;DHT22;11110;52.386;16.940;2023-04-25T06:34:44;23.20;39.90
21891;DHT22;11110;52.386;16.940;2023-04-25T06:37:13;23.20;40.10
21891;DHT22;11110;52.386;16.940;2023-04-25T06:39:41;23.40;39.70
21891;DHT22;11110;52.386;16.940;2023-04-25T06:42:11;23.10;39.90
21891;DHT22;11110;52.386;16.940;2023-04-25T06:45:06;23.20;40.20
21891;DHT22;11110;52.386;16.940;2023-04-25T06:47:35;23.30;39.60
21891;DHT22;11110;52.386;16.940;2023-04-25T06:50:06;23.10;39.70
21891;DHT22;11110;52.386;16.940;2023-04-25T06:52:36;23.10;39.70
21891;DHT22;11110;52.386;16.940;2023-04-25T06:55:06;23.10;39.70
21891;DHT22;11110;52.386;16.940;2023-04-25T06:57:50;23.20;39.50
21891;DHT22;11110;52.386;16.940;2023-04-25T07:00:41;23.40;39.40
21891;DHT22;11110;52.386;16.940;2023-04-25T07:03:10;23.50;39.20
21891;DHT22;11110;52.386;16.940;2023-04-25T07:05:40;23.50;39.40
21891;DHT22;11110;52.386;16.940;2023-04-25T07:08:08;23.40;39.30
21891;DHT22;11110;52.386;16.940;2023-04-25T07:10:37;23.40;39.60
21891;DHT22;11110;52.386;16.940;2023-04-25T07:13:06;23.50;39.30
21891;DHT22;11110;52.386;16.940;2023-04-25T07:15:35;23.50;39.20
21891;DHT22;11110;52.386;16.940;2023-04-25T07:18:05;23.50;39.20
21891;DHT22;11110;52.386;16.940;2023-04-25T07:20:34;23.40;39.60
21891;DHT22;11110;52.386;16.940;2023-04-25T07:23:04;23.50;39.40
21891;DHT22;11110;52.386;16.940;2023-04-25T07:25:33;23.60;39.30
21891;DHT22;11110;52.386;16.940;2023-04-25T07:28:02;23.80;39.00
21891;DHT22;11110;52.386;16.940;2023-04-25T07:30:31;23.80;38.70
21891;DHT22;11110;52.386;16.940;2023-04-25T07:33:03;23.70;39.00
21891;DHT22;11110;52.386;16.940;2023-04-25T07:35:33;23.80;39.00
21891;DHT22;11110;52.386;16.940;2023-04-25T07:38:02;23.70;38.90
21891;DHT22;11110;52.386;16.940;2023-04-25T07:40:31;23.90;39.10
21891;DHT22;11110;52.386;16.940;2023-04-25T07:43:05;24.10;38.60
21891;DHT22;11110;52.386;16.940;2023-04-25T07:45:48;24.20;38.60
21891;DHT22;11110;52.386;16.940;2023-04-25T07:48:19;24.00;38.90
21891;DHT22;11110;52.386;16.940;2023-04-25T07:50:49;24.00;38.80
21891;DHT22;11110;52.386;16.940;2023-04-25T07:53:17;24.30;38.30
21891;DHT22;11110;52.386;16.940;2023-04-25T07:55:53;24.30;38.40
21891;DHT22;11110;52.386;16.940;2023-04-25T07:58:22;24.20;38.50
21891;DHT22;11110;52.386;16.940;2023-04-25T08:00:55;24.20;38.60
21891;DHT22;11110;52.386;16.940;2023-04-25T08:03:46;24.30;38.60
21891;DHT22;11110;52.386;16.940;2023-04-25T08:06:21;24.10;38.40
21891;DHT22;11110;52.386;16.940;2023-04-25T08:09:01;24.30;39.00
21891;DHT22;11110;52.386;16.940;2023-04-25T08:11:38;24.50;38.00
21891;DHT22;11110;52.386;16.940;2023-04-25T08:14:08;24.20;38.10
21891;DHT22;11110;52.386;16.940;2023-04-25T08:16:38;24.40;38.00
21891;DHT22;11110;52.386;16.940;2023-04-25T08:19:06;24.40;38.00
21891;DHT22;11110;52.386;16.940;2023-04-25T08:21:35;24.40;38.10
21891;DHT22;11110;52.386;16.940;2023-04-25T08:24:08;24.40;38.10
21891;DHT22;11110;52.386;16.940;2023-04-25T08:26:40;24.60;37.90
21891;DHT22;11110;52.386;16.940;2023-04-25T08:29:11;24.60;37.50
21891;DHT22;11110;52.386;16.940;2023-04-25T08:31:41;24.50;37.60
21891;DHT22;11110;52.386;16.940;2023-04-25T08:34:09;24.60;37.90
21891;DHT22;11110;52.386;16.940;2023-04-25T08:36:43;24.70;37.60
21891;DHT22;11110;52.386;16.940;2023-04-25T08:39:38;24.70;37.00
21891;DHT22;11110;52.386;16.940;2023-04-25T08:42:28;24.60;37.20
21891;DHT22;11110;52.386;16.940;2023-04-25T08:44:59;24.80;36.60
21891;DHT22;11110;52.386;16.940;2023-04-25T08:47:37;24.80;36.70
21891;DHT22;11110;52.386;16.940;2023-04-25T08:50:06;24.80;36.30
21891;DHT22;11110;52.386;16.940;2023-04-25T08:52:37;25.00;36.90
21891;DHT22;11110;52.386;16.940;2023-04-25T08:55:09;25.00;36.00
21891;DHT22;11110;52.386;16.940;2023-04-25T08:57:42;24.90;36.20
21891;DHT22;11110;52.386;16.940;2023-04-25T09:00:12;24.90;36.40
21891;DHT22;11110;52.386;16.940;2023-04-25T09:02:43;24.80;36.40
21891;DHT22;11110;52.386;16.940;2023-04-25T09:05:13;24.90;36.40
21891;DHT22;11110;52.386;16.940;2023-04-25T09:07:43;25.10;36.00
21891;DHT22;11110;52.386;16.940;2023-04-25T09:10:14;25.00;36.10
21891;DHT22;11110;52.386;16.940;2023-04-25T09:12:58;25.10;35.70
21891;DHT22;11110;52.386;16.940;2023-04-25T09:15:31;25.10;36.00
21891;DHT22;11110;52.386;16.940;2023-04-25T09:18:23;25.10;35.70
21891;DHT22;11110;52.386;16.940;2023-04-25T09:21:04;25.20;35.60
21891;DHT22;11110;52.386;16.940;2023-04-25T09:23:43;25.00;35.80
21891;DHT22;11110;52.386;16.940;2023-04-25T09:26:14;25.20;35.90
21891;DHT22;11110;52.386;16.940;2023-04-25T09:28:46;25.20;36.10
21891;DHT22;11110;52.386;16.940;2023-04-25T09:31:21;25.10;35.60
21891;DHT22;11110;52.386;16.940;2023-04-25T09:33:59;25.00;35.80
21891;DHT22;11110;52.386;16.940;2023-04-25T09:36:31;25.00;35.60
21891;DHT22;11110;52.386;16.940;2023-04-25T09:39:28;25.10;35.30
21891;DHT22;11110;52.386;16.940;2023-04-25T09:42:04;24.90;35.20
21891;DHT22;11110;52.386;16.940;2023-04-25T09:44:35;25.00;34.30
21891;DHT22;11110;52.386;16.940;2023-04-25T09:47:07;25.20;34.40
21891;DHT22;11110;52.386;16.940;2023-04-25T09:49:39;25.00;35.00
21891;DHT22;11110;52.386;16.940;2023-04-25T09:52:14;25.10;35.60
21891;DHT22;11110;52.386;16.940;2023-04-25T09:55:13;25.00;35.10
21891;DHT22;11110;52.386;16.940;2023-04-25T09:57:45;24.90;35.30
21891;DHT22;11110;52.386;16.940;2023-04-25T10:00:21;25.10;35.20
21891;DHT22;11110;52.386;16.940;2023-04-25T10:02:50;25.20;35.20
21891;DHT22;11110;52.386;16.940;2023-04-25T10:05:50;25.30;35.20
21891;DHT22;11110;52.386;16.940;2023-04-25T10:08:20;25.20;35.20
21891;DHT22;11110;52.386;16.940;2023-04-25T10:10:49;25.40;34.00
21891;DHT22;11110;52.386;16.940;2023-04-25T10:13:18;25.10;34.80
21891;DHT22;11110;52.386;16.940;2023-04-25T10:15:49;25.30;34.70
21891;DHT22;11110;52.386;16.940;2023-04-25T10:18:19;25.40;34.00
21891;DHT22;11110;52.386;16.940;2023-04-25T10:20:48;25.30;34.50
21891;DHT22;11110;52.386;16.940;2023-04-25T10:23:20;25.20;34.10
21891;DHT22;11110;52.386;16.940;2023-04-25T10:25:49;25.10;34.40
21891;DHT22;11110;52.386;16.940;2023-04-25T10:28:18;25.00;35.00
21891;DHT22;11110;52.386;16.940;2023-04-25T10:31:02;24.90;35.60
21891;DHT22;11110;52.386;16.940;2023-04-25T10:33:36;25.10;35.50
21891;DHT22;11110;52.386;16.940;2023-04-25T10:36:12;25.10;35.50
21891;DHT22;11110;52.386;16.940;2023-04-25T10:38:42;25.10;34.60
21891;DHT22;11110;52.386;16.940;2023-04-25T10:41:12;25.10;34.20
21891;DHT22;11110;52.386;16.940;2023-04-25T10:43:41;25.10;34.80
21891;DHT22;11110;52.386;16.940;2023-04-25T10:46:17;25.10;34.50
21891;DHT22;11110;52.386;16.940;2023-04-25T10:48:47;25.20;33.80
21891;DHT22;11110;52.386;16.940;2023-04-25T10:51:20;25.10;33.80
21891;DHT22;11110;52.386;16.940;2023-04-25T10:53:59;25.20;33.80
21891;DHT22;11110;52.386;16.940;2023-04-25T10:56:29;25.20;34.10
21891;DHT22;11110;52.386;16.940;2023-04-25T10:59:09;25.20;34.60
21891;DHT22;11110;52.386;16.940;2023-04-25T11:01:41;25.30;34.20
21891;DHT22;11110;52.386;16.940;2023-04-25T11:04:21;25.20;34.20
21891;DHT22;11110;52.386;16.940;2023-04-25T11:07:07;25.20;34.20
21891;DHT22;11110;52.386;16.940;2023-04-25T11:09:39;25.10;34.60
21891;DHT22;11110;52.386;16.940;2023-04-25T11:12:09;25.10;34.30
21891;DHT22;11110;52.386;16.940;2023-04-25T11:14:39;25.00;34.30
21891;DHT22;11110;52.386;16.940;2023-04-25T11:17:09;25.20;34.40
21891;DHT22;11110;52.386;16.940;2023-04-25T11:19:38;25.30;34.10
21891;DHT22;11110;52.386;16.940;2023-04-25T11:22:07;25.30;34.30
21891;DHT22;11110;52.386;16.940;2023-04-25T11:24:38;25.30;34.90
21891;DHT22;11110;52.386;16.940;2023-04-25T11:27:07;25.60;33.70
21891;DHT22;11110;52.386;16.940;2023-04-25T11:29:36;25.40;33.80
21891;DHT22;11110;52.386;16.940;2023-04-25T11:32:05;25.40;33.20
21891;DHT22;11110;52.386;16.940;2023-04-25T11:34:35;25.60;32.90
21891;DHT22;11110;52.386;16.940;2023-04-25T11:37:03;25.60;33.00
21891;DHT22;11110;52.386;16.940;2023-04-25T11:39:33;25.60;33.10
21891;DHT22;11110;52.386;16.940;2023-04-25T11:42:04;25.60;33.10
21891;DHT22;11110;52.386;16.940;2023-04-25T11:44:39;25.70;33.40
21891;DHT22;11110;52.386;16.940;2023-04-25T11:47:08;25.70;33.40
21891;DHT22;11110;52.386;16.940;2023-04-25T11:49:38;25.70;33.60
21891;DHT22;11110;52.386;16.940;2023-04-25T11:52:07;25.50;33.50
21891;DHT22;11110;52.386;16.940;2023-04-25T11:54:36;25.50;33.60
21891;DHT22;11110;52.386;16.940;2023-04-25T11:57:05;25.60;33.70
21891;DHT22;11110;52.386;16.940;2023-04-25T11:59:34;25.50;33.60
21891;DHT22;11110;52.386;16.940;2023-04-25T12:02:02;25.50;33.70
21891;DHT22;11110;52.386;16.940;2023-04-25T12:04:31;25.50;33.40
21891;DHT22;11110;52.386;16.940;2023-04-25T12:07:02;25.40;33.70
21891;DHT22;11110;52.386;16.940;2023-04-25T12:09:31;25.50;34.00
21891;DHT22;11110;52.386;16.940;2023-04-25T12:12:01;25.40;34.00
21891;DHT22;11110;52.386;16.940;2023-04-25T12:14:32;25.30;34.20
21891;DHT22;11110;52.386;16.940;2023-04-25T12:17:03;25.10;34.30
21891;DHT22;11110;52.386;16.940;2023-04-25T12:19:35;25.20;34.30
21891;DHT22;11110;52.386;16.940;2023-04-25T12:22:21;25.20;34.40
21891;DHT22;11110;52.386;16.940;2023-04-25T12:24:50;25.20;34.30
21891;DHT22;11110;52.386;16.940;2023-04-25T12:27:20;25.30;34.30
21891;DHT22;11110;52.386;16.940;2023-04-25T12:29:52;25.30;34.50
21891;DHT22;11110;52.386;16.940;2023-04-25T12:32:21;25.20;34.70
21891;DHT22;11110;52.386;16.940;2023-04-25T12:34:50;25.30;34.50
21891;DHT22;11110;52.386;16.940;2023-04-25T12:37:20;25.30;34.60
21891;DHT22;11110;52.386;16.940;2023-04-25T12:39:48;25.20;34.70
21891;DHT22;11110;52.386;16.940;2023-04-25T12:42:17;25.20;35.10
21891;DHT22;11110;52.386;16.940;2023-04-25T12:44:46;25.20;35.30
21891;DHT22;11110;52.386;16.940;2023-04-25T12:47:15;25.40;35.50
21891;DHT22;11110;52.386;16.940;2023-04-25T12:49:43;25.30;35.40
21891;DHT22;11110;52.386;16.940;2023-04-25T12:52:12;25.50;35.40
21891;DHT22;11110;52.386;16.940;2023-04-25T12:54:42;25.40;35.10
21891;DHT22;11110;52.386;16.940;2023-04-25T12:57:10;25.30;35.60
21891;DHT22;11110;52.386;16.940;2023-04-25T12:59:39;25.20;35.80
21891;DHT22;11110;52.386;16.940;2023-04-25T13:02:07;25.20;35.30
21891;DHT22;11110;52.386;16.940;2023-04-25T13:04:36;25.20;36.20
21891;DHT22;11110;52.386;16.940;2023-04-25T13:07:05;25.30;36.20
21891;DHT22;11110;52.386;16.940;2023-04-25T13:09:33;25.30;36.10
21891;DHT22;11110;52.386;16.940;2023-04-25T13:12:03;25.30;35.70
21891;DHT22;11110;52.386;16.940;2023-04-25T13:14:32;25.40;35.50
21891;DHT22;11110;52.386;16.940;2023-04-25T13:17:01;25.40;35.40
21891;DHT22;11110;52.386;16.940;2023-04-25T13:19:29;25.50;35.70
21891;DHT22;11110;52.386;16.940;2023-04-25T13:21:57;25.50;35.80
21891;DHT22;11110;52.386;16.940;2023-04-25T13:24:26;25.60;35.80
21891;DHT22;11110;52.386;16.940;2023-04-25T13:26:55;25.60;35.70
21891;DHT22;11110;52.386;16.940;2023-04-25T13:29:25;25.40;37.00
21891;DHT22;11110;52.386;16.940;2023-04-25T13:31:53;25.40;37.20
21891;DHT22;11110;52.386;16.940;2023-04-25T13:34:22;25.10;37.40
21891;DHT22;11110;52.386;16.940;2023-04-25T13:36:50;25.00;38.10
21891;DHT22;11110;52.386;16.940;2023-04-25T13:39:19;24.90;38.00
21891;DHT22;11110;52.386;16.940;2023-04-25T13:41:48;24.90;37.80
21891;DHT22;11110;52.386;16.940;2023-04-25T13:44:16;25.00;38.30
21891;DHT22;11110;52.386;16.940;2023-04-25T13:46:46;24.90;38.60
21891;DHT22;11110;52.386;16.940;2023-04-25T13:49:15;25.10;37.50
21891;DHT22;11110;52.386;16.940;2023-04-25T13:51:44;25.20;37.40
21891;DHT22;11110;52.386;16.940;2023-04-25T13:54:12;25.00;37.40
21891;DHT22;11110;52.386;16.940;2023-04-25T13:56:41;24.90;37.70
21891;DHT22;11110;52.386;16.940;2023-04-25T13:59:10;24.80;38.00
21891;DHT22;11110;52.386;16.940;2023-04-25T14:01:39;24.50;38.70
21891;DHT22;11110;52.386;16.940;2023-04-25T14:04:08;24.70;39.00
21891;DHT22;11110;52.386;16.940;2023-04-25T14:06:38;24.80;39.40
21891;DHT22;11110;52.386;16.940;2023-04-25T14:09:06;24.70;39.30
21891;DHT22;11110;52.386;16.940;2023-04-25T14:11:37;24.70;39.30
21891;DHT22;11110;52.386;16.940;2023-04-25T14:14:06;24.80;39.30
21891;DHT22;11110;52.386;16.940;2023-04-25T14:16:34;24.80;39.00
21891;DHT22;11110;52.386;16.940;2023-04-25T14:19:03;24.80;39.20
21891;DHT22;11110;52.386;16.940;2023-04-25T14:21:33;24.80;38.90
21891;DHT22;11110;52.386;16.940;2023-04-25T14:24:02;24.90;39.10
21891;DHT22;11110;52.386;16.940;2023-04-25T14:26:33;25.00;39.30
21891;DHT22;11110;52.386;16.940;2023-04-25T14:29:01;25.20;38.90
21891;DHT22;11110;52.386;16.940;2023-04-25T14:31:30;25.00;38.90
21891;DHT22;11110;52.386;16.940;2023-04-25T14:33:58;24.90;38.80
21891;DHT22;11110;52.386;16.940;2023-04-25T14:36:28;24.80;38.40
21891;DHT22;11110;52.386;16.940;2023-04-25T14:38:59;24.70;38.70
21891;DHT22;11110;52.386;16.940;2023-04-25T14:41:28;24.50;39.20
21891;DHT22;11110;52.386;16.940;2023-04-25T14:43:56;24.50;39.40
21891;DHT22;11110;52.386;16.940;2023-04-25T14:46:25;24.20;39.50
21891;DHT22;11110;52.386;16.940;2023-04-25T14:48:54;24.20;39.60
21891;DHT22;11110;52.386;16.940;2023-04-25T14:51:23;24.20;39.30
21891;DHT22;11110;52.386;16.940;2023-04-25T14:53:53;24.30;38.90
21891;DHT22;11110;52.386;16.940;2023-04-25T14:56:23;24.10;37.80
21891;DHT22;11110;52.386;16.940;2023-04-25T14:58:52;24.10;38.10
21891;DHT22;11110;52.386;16.940;2023-04-25T15:01:21;24.10;38.40
21891;DHT22;11110;52.386;16.940;2023-04-25T15:03:50;24.20;38.10
21891;DHT22;11110;52.386;16.940;2023-04-25T15:06:20;24.20;37.70
21891;DHT22;11110;52.386;16.940;2023-04-25T15:08:48;24.20;36.60
21891;DHT22;11110;52.386;16.940;2023-04-25T15:11:18;24.40;36.00
21891;DHT22;11110;52.386;16.940;2023-04-25T15:13:48;24.40;36.60
21891;DHT22;11110;52.386;16.940;2023-04-25T15:16:17;24.50;35.30
21891;DHT22;11110;52.386;16.940;2023-04-25T15:18:46;24.30;35.70
21891;DHT22;11110;52.386;16.940;2023-04-25T15:21:14;24.30;35.90
21891;DHT22;11110;52.386;16.940;2023-04-25T15:23:43;24.30;35.80
21891;DHT22;11110;52.386;16.940;2023-04-25T15:26:12;24.10;36.00
21891;DHT22;11110;52.386;16.940;2023-04-25T15:28:40;24.10;36.00
21891;DHT22;11110;52.386;16.940;2023-04-25T15:31:11;24.20;35.40
21891;DHT22;11110;52.386;16.940;2023-04-25T15:33:39;24.20;35.30
21891;DHT22;11110;52.386;16.940;2023-04-25T15:36:08;24.30;35.50
21891;DHT22;11110;52.386;16.940;2023-04-25T15:38:37;24.10;35.90
21891;DHT22;11110;52.386;16.940;2023-04-25T15:41:06;24.10;36.10
21891;DHT22;11110;52.386;16.940;2023-04-25T15:43:34;24.20;36.10
21891;DHT22;11110;52.386;16.940;2023-04-25T15:46:04;24.10;36.90